Terminal Aerodrome Forecast
Issued by NWS Charleston, WV

Current Version | Previous Version | Text Only | Print | Product List | Glossary Off
Versions: 1 2 3 4 5 6 7 8 9 10 11 12 13 14 15 16 17 18 19

000
FTUS41 KRLX 190200 AAA
TAFPKB
TAF AMD
KPKB 190232Z 1903/1924 VRB03KT P6SM -SHSN OVC025
     FM191300 28003KT P6SM BKN025
     FM192000 30003KT P6SM SCT030 SCT250=

USA.gov is the U.S. government's official web portal to all federal, state and local government web resources and services.